sensor_id;sensor_type;location;lat;lon;timestamp;P1;durP1;ratioP1;P2;durP2;ratioP2
76667;SDS011;65585;51.166;16.922;2024-03-08T00:01:31;32.10;;;17.45;;
76667;SDS011;65585;51.166;16.922;2024-03-08T00:03:57;32.00;;;17.23;;
76667;SDS011;65585;51.166;16.922;2024-03-08T00:06:24;30.33;;;15.52;;
76667;SDS011;65585;51.166;16.922;2024-03-08T00:08:50;31.52;;;16.60;;
76667;SDS011;65585;51.166;16.922;2024-03-08T00:11:16;30.48;;;16.83;;
76667;SDS011;65585;51.166;16.922;2024-03-08T00:13:42;35.83;;;17.25;;
76667;SDS011;65585;51.166;16.922;2024-03-08T00:16:10;27.67;;;15.95;;
76667;SDS011;65585;51.166;16.922;2024-03-08T00:18:36;31.45;;;15.10;;
76667;SDS011;65585;51.166;16.922;2024-03-08T00:21:02;32.95;;;14.38;;
76667;SDS011;65585;51.166;16.922;2024-03-08T00:23:28;30.75;;;14.60;;
76667;SDS011;65585;51.166;16.922;2024-03-08T00:25:54;38.75;;;17.10;;
76667;SDS011;65585;51.166;16.922;2024-03-08T00:28:21;31.98;;;16.67;;
76667;SDS011;65585;51.166;16.922;2024-03-08T00:30:47;36.03;;;16.60;;
76667;SDS011;65585;51.166;16.922;2024-03-08T00:33:13;31.23;;;16.38;;
76667;SDS011;65585;51.166;16.922;2024-03-08T00:35:39;33.40;;;17.08;;
76667;SDS011;65585;51.166;16.922;2024-03-08T00:38:04;31.80;;;16.23;;
76667;SDS011;65585;51.166;16.922;2024-03-08T00:40:31;32.95;;;17.05;;
76667;SDS011;65585;51.166;16.922;2024-03-08T00:42:57;32.38;;;16.92;;
76667;SDS011;65585;51.166;16.922;2024-03-08T00:45:23;34.95;;;15.48;;
76667;SDS011;65585;51.166;16.922;2024-03-08T00:47:48;31.48;;;16.55;;
76667;SDS011;65585;51.166;16.922;2024-03-08T00:50:14;33.08;;;17.08;;
76667;SDS011;65585;51.166;16.922;2024-03-08T00:52:40;33.95;;;16.95;;
76667;SDS011;65585;51.166;16.922;2024-03-08T00:55:07;32.78;;;18.15;;
76667;SDS011;65585;51.166;16.922;2024-03-08T00:57:35;28.70;;;15.93;;
76667;SDS011;65585;51.166;16.922;2024-03-08T01:00:05;34.60;;;16.40;;
76667;SDS011;65585;51.166;16.922;2024-03-08T01:02:35;27.80;;;16.90;;
76667;SDS011;65585;51.166;16.922;2024-03-08T01:05:01;33.50;;;16.52;;
76667;SDS011;65585;51.166;16.922;2024-03-08T01:07:27;35.55;;;17.13;;
76667;SDS011;65585;51.166;16.922;2024-03-08T01:09:53;32.38;;;17.58;;
76667;SDS011;65585;51.166;16.922;2024-03-08T01:12:19;36.42;;;17.15;;
76667;SDS011;65585;51.166;16.922;2024-03-08T01:14:45;33.08;;;16.48;;
76667;SDS011;65585;51.166;16.922;2024-03-08T01:17:11;33.95;;;17.15;;
76667;SDS011;65585;51.166;16.922;2024-03-08T01:19:38;31.92;;;16.23;;
76667;SDS011;65585;51.166;16.922;2024-03-08T01:22:04;36.40;;;16.25;;
76667;SDS011;65585;51.166;16.922;2024-03-08T01:24:30;34.72;;;18.20;;
76667;SDS011;65585;51.166;16.922;2024-03-08T01:26:56;31.60;;;18.15;;
76667;SDS011;65585;51.166;16.922;2024-03-08T01:29:22;34.17;;;17.27;;
76667;SDS011;65585;51.166;16.922;2024-03-08T01:31:48;32.63;;;16.75;;
76667;SDS011;65585;51.166;16.922;2024-03-08T01:34:14;34.97;;;17.70;;
76667;SDS011;65585;51.166;16.922;2024-03-08T01:36:40;40.30;;;19.25;;
76667;SDS011;65585;51.166;16.922;2024-03-08T01:39:06;32.53;;;16.98;;
76667;SDS011;65585;51.166;16.922;2024-03-08T01:41:33;31.23;;;17.75;;
76667;SDS011;65585;51.166;16.922;2024-03-08T01:44:01;33.05;;;16.23;;
76667;SDS011;65585;51.166;16.922;2024-03-08T01:46:28;30.48;;;17.60;;
76667;SDS011;65585;51.166;16.922;2024-03-08T01:48:54;34.45;;;15.55;;
76667;SDS011;65585;51.166;16.922;2024-03-08T01:51:21;32.40;;;17.20;;
76667;SDS011;65585;51.166;16.922;2024-03-08T01:53:47;32.65;;;16.98;;
76667;SDS011;65585;51.166;16.922;2024-03-08T01:56:13;39.28;;;19.48;;
76667;SDS011;65585;51.166;16.922;2024-03-08T01:58:43;35.40;;;17.08;;
76667;SDS011;65585;51.166;16.922;2024-03-08T02:01:09;35.42;;;17.08;;
76667;SDS011;65585;51.166;16.922;2024-03-08T02:03:37;36.60;;;18.15;;
76667;SDS011;65585;51.166;16.922;2024-03-08T02:06:02;27.65;;;17.92;;
76667;SDS011;65585;51.166;16.922;2024-03-08T02:08:30;29.55;;;16.30;;
76667;SDS011;65585;51.166;16.922;2024-03-08T02:10:57;32.60;;;15.88;;
76667;SDS011;65585;51.166;16.922;2024-03-08T02:13:23;32.13;;;17.15;;
76667;SDS011;65585;51.166;16.922;2024-03-08T02:15:56;33.30;;;17.10;;
76667;SDS011;65585;51.166;16.922;2024-03-08T02:18:25;28.42;;;16.77;;
76667;SDS011;65585;51.166;16.922;2024-03-08T02:20:51;35.58;;;17.67;;
76667;SDS011;65585;51.166;16.922;2024-03-08T02:23:30;37.83;;;18.67;;
76667;SDS011;65585;51.166;16.922;2024-03-08T02:25:56;39.88;;;16.75;;
76667;SDS011;65585;51.166;16.922;2024-03-08T02:28:23;32.80;;;16.45;;
76667;SDS011;65585;51.166;16.922;2024-03-08T02:30:50;35.30;;;15.45;;
76667;SDS011;65585;51.166;16.922;2024-03-08T02:33:17;33.05;;;17.05;;
76667;SDS011;65585;51.166;16.922;2024-03-08T02:35:44;30.67;;;17.08;;
76667;SDS011;65585;51.166;16.922;2024-03-08T02:38:13;35.05;;;16.42;;
76667;SDS011;65585;51.166;16.922;2024-03-08T02:40:47;33.65;;;14.27;;
76667;SDS011;65585;51.166;16.922;2024-03-08T02:43:15;34.38;;;16.45;;
76667;SDS011;65585;51.166;16.922;2024-03-08T02:45:42;30.13;;;15.85;;
76667;SDS011;65585;51.166;16.922;2024-03-08T02:48:09;35.05;;;16.35;;
76667;SDS011;65585;51.166;16.922;2024-03-08T02:50:36;38.55;;;17.58;;
76667;SDS011;65585;51.166;16.922;2024-03-08T02:53:03;28.60;;;16.98;;
76667;SDS011;65585;51.166;16.922;2024-03-08T02:55:29;34.28;;;17.38;;
76667;SDS011;65585;51.166;16.922;2024-03-08T02:57:56;32.05;;;17.40;;
76667;SDS011;65585;51.166;16.922;2024-03-08T03:00:22;29.25;;;16.27;;
76667;SDS011;65585;51.166;16.922;2024-03-08T03:02:49;41.00;;;18.55;;
76667;SDS011;65585;51.166;16.922;2024-03-08T03:05:19;31.70;;;16.98;;
76667;SDS011;65585;51.166;16.922;2024-03-08T03:07:46;32.55;;;16.42;;
76667;SDS011;65585;51.166;16.922;2024-03-08T03:10:13;36.65;;;17.88;;
76667;SDS011;65585;51.166;16.922;2024-03-08T03:12:42;36.60;;;17.00;;
76667;SDS011;65585;51.166;16.922;2024-03-08T03:15:08;28.65;;;16.55;;
76667;SDS011;65585;51.166;16.922;2024-03-08T03:17:34;36.67;;;18.05;;
76667;SDS011;65585;51.166;16.922;2024-03-08T03:20:00;40.53;;;18.67;;
76667;SDS011;65585;51.166;16.922;2024-03-08T03:22:34;37.03;;;17.58;;
76667;SDS011;65585;51.166;16.922;2024-03-08T03:25:02;29.17;;;17.15;;
76667;SDS011;65585;51.166;16.922;2024-03-08T03:27:29;32.17;;;16.70;;
76667;SDS011;65585;51.166;16.922;2024-03-08T03:29:58;32.95;;;16.38;;
76667;SDS011;65585;51.166;16.922;2024-03-08T03:32:44;28.27;;;16.33;;
76667;SDS011;65585;51.166;16.922;2024-03-08T03:35:12;32.97;;;17.17;;
76667;SDS011;65585;51.166;16.922;2024-03-08T03:37:40;32.38;;;17.08;;
76667;SDS011;65585;51.166;16.922;2024-03-08T03:40:08;40.33;;;18.95;;
76667;SDS011;65585;51.166;16.922;2024-03-08T03:42:35;31.65;;;17.35;;
76667;SDS011;65585;51.166;16.922;2024-03-08T03:47:31;23.40;;;13.98;;
76667;SDS011;65585;51.166;16.922;2024-03-08T03:49:57;31.48;;;16.25;;
76667;SDS011;65585;51.166;16.922;2024-03-08T03:52:27;38.75;;;16.38;;
76667;SDS011;65585;51.166;16.922;2024-03-08T03:54:53;29.55;;;15.13;;
76667;SDS011;65585;51.166;16.922;2024-03-08T03:57:19;33.92;;;17.52;;
76667;SDS011;65585;51.166;16.922;2024-03-08T03:59:48;32.97;;;16.17;;
76667;SDS011;65585;51.166;16.922;2024-03-08T04:02:14;31.05;;;17.90;;
76667;SDS011;65585;51.166;16.922;2024-03-08T04:04:40;29.73;;;16.50;;
76667;SDS011;65585;51.166;16.922;2024-03-08T04:07:07;36.70;;;17.15;;
76667;SDS011;65585;51.166;16.922;2024-03-08T04:09:34;34.63;;;17.13;;
76667;SDS011;65585;51.166;16.922;2024-03-08T04:12:01;31.83;;;16.00;;
76667;SDS011;65585;51.166;16.922;2024-03-08T04:14:27;34.95;;;17.23;;
76667;SDS011;65585;51.166;16.922;2024-03-08T04:16:53;39.78;;;17.95;;
76667;SDS011;65585;51.166;16.922;2024-03-08T04:19:19;30.35;;;17.17;;
76667;SDS011;65585;51.166;16.922;2024-03-08T04:21:45;35.13;;;16.80;;
76667;SDS011;65585;51.166;16.922;2024-03-08T04:24:12;31.65;;;16.52;;
76667;SDS011;65585;51.166;16.922;2024-03-08T04:26:38;29.73;;;16.48;;
76667;SDS011;65585;51.166;16.922;2024-03-08T04:29:04;24.25;;;14.43;;
76667;SDS011;65585;51.166;16.922;2024-03-08T04:31:30;30.42;;;16.60;;
76667;SDS011;65585;51.166;16.922;2024-03-08T04:33:56;34.25;;;16.55;;
76667;SDS011;65585;51.166;16.922;2024-03-08T04:36:22;28.15;;;16.15;;
76667;SDS011;65585;51.166;16.922;2024-03-08T04:38:50;29.13;;;16.80;;
76667;SDS011;65585;51.166;16.922;2024-03-08T04:41:17;32.92;;;17.98;;
76667;SDS011;65585;51.166;16.922;2024-03-08T04:43:43;32.92;;;15.45;;
76667;SDS011;65585;51.166;16.922;2024-03-08T04:46:09;26.98;;;14.93;;
76667;SDS011;65585;51.166;16.922;2024-03-08T04:48:35;33.35;;;16.40;;
76667;SDS011;65585;51.166;16.922;2024-03-08T04:51:02;37.85;;;16.73;;
76667;SDS011;65585;51.166;16.922;2024-03-08T04:53:29;34.22;;;17.08;;
76667;SDS011;65585;51.166;16.922;2024-03-08T04:55:57;34.13;;;15.68;;
76667;SDS011;65585;51.166;16.922;2024-03-08T04:58:24;35.78;;;18.75;;
76667;SDS011;65585;51.166;16.922;2024-03-08T05:00:50;30.92;;;17.13;;
76667;SDS011;65585;51.166;16.922;2024-03-08T05:03:16;34.35;;;17.90;;
76667;SDS011;65585;51.166;16.922;2024-03-08T05:05:42;38.22;;;17.67;;
76667;SDS011;65585;51.166;16.922;2024-03-08T05:08:08;36.33;;;19.73;;
76667;SDS011;65585;51.166;16.922;2024-03-08T05:10:34;34.42;;;19.17;;
76667;SDS011;65585;51.166;16.922;2024-03-08T05:13:00;39.42;;;18.20;;
76667;SDS011;65585;51.166;16.922;2024-03-08T05:15:26;35.03;;;15.80;;
76667;SDS011;65585;51.166;16.922;2024-03-08T05:17:52;35.85;;;16.90;;
76667;SDS011;65585;51.166;16.922;2024-03-08T05:20:18;37.38;;;17.55;;
76667;SDS011;65585;51.166;16.922;2024-03-08T05:22:44;39.60;;;18.85;;
76667;SDS011;65585;51.166;16.922;2024-03-08T05:25:12;44.13;;;19.20;;
76667;SDS011;65585;51.166;16.922;2024-03-08T05:27:39;39.08;;;18.90;;
76667;SDS011;65585;51.166;16.922;2024-03-08T05:30:06;39.45;;;18.13;;
76667;SDS011;65585;51.166;16.922;2024-03-08T05:32:32;36.33;;;18.63;;
76667;SDS011;65585;51.166;16.922;2024-03-08T05:34:58;42.42;;;20.40;;
76667;SDS011;65585;51.166;16.922;2024-03-08T05:37:24;39.95;;;18.42;;
76667;SDS011;65585;51.166;16.922;2024-03-08T05:39:50;40.03;;;20.33;;
76667;SDS011;65585;51.166;16.922;2024-03-08T05:42:16;39.45;;;18.13;;
76667;SDS011;65585;51.166;16.922;2024-03-08T05:44:42;41.55;;;20.75;;
76667;SDS011;65585;51.166;16.922;2024-03-08T05:47:09;35.92;;;19.60;;
76667;SDS011;65585;51.166;16.922;2024-03-08T05:49:35;35.67;;;19.30;;
76667;SDS011;65585;51.166;16.922;2024-03-08T05:52:00;36.65;;;20.05;;
76667;SDS011;65585;51.166;16.922;2024-03-08T05:54:27;36.83;;;19.02;;
76667;SDS011;65585;51.166;16.922;2024-03-08T05:56:52;38.60;;;20.70;;
76667;SDS011;65585;51.166;16.922;2024-03-08T05:59:20;40.92;;;20.77;;
76667;SDS011;65585;51.166;16.922;2024-03-08T06:01:45;38.90;;;22.17;;
76667;SDS011;65585;51.166;16.922;2024-03-08T06:04:12;39.75;;;23.20;;
76667;SDS011;65585;51.166;16.922;2024-03-08T06:06:39;43.50;;;21.83;;
76667;SDS011;65585;51.166;16.922;2024-03-08T06:09:06;44.97;;;21.52;;
76667;SDS011;65585;51.166;16.922;2024-03-08T06:11:36;40.05;;;22.45;;
76667;SDS011;65585;51.166;16.922;2024-03-08T06:14:03;43.90;;;22.10;;
76667;SDS011;65585;51.166;16.922;2024-03-08T06:16:29;49.53;;;21.92;;
76667;SDS011;65585;51.166;16.922;2024-03-08T06:18:58;52.88;;;23.83;;
76667;SDS011;65585;51.166;16.922;2024-03-08T06:21:24;52.60;;;22.92;;
76667;SDS011;65585;51.166;16.922;2024-03-08T06:23:53;47.50;;;23.77;;
76667;SDS011;65585;51.166;16.922;2024-03-08T06:26:23;52.17;;;22.85;;
76667;SDS011;65585;51.166;16.922;2024-03-08T06:28:50;42.60;;;24.02;;
76667;SDS011;65585;51.166;16.922;2024-03-08T06:31:16;44.20;;;22.80;;
76667;SDS011;65585;51.166;16.922;2024-03-08T06:33:42;40.67;;;24.42;;
76667;SDS011;65585;51.166;16.922;2024-03-08T06:36:09;47.22;;;23.05;;
76667;SDS011;65585;51.166;16.922;2024-03-08T06:38:35;45.53;;;24.10;;
76667;SDS011;65585;51.166;16.922;2024-03-08T06:41:01;56.45;;;22.58;;
76667;SDS011;65585;51.166;16.922;2024-03-08T06:45:59;36.95;;;20.73;;
76667;SDS011;65585;51.166;16.922;2024-03-08T06:48:25;43.40;;;21.30;;
76667;SDS011;65585;51.166;16.922;2024-03-08T06:50:51;44.88;;;21.77;;
76667;SDS011;65585;51.166;16.922;2024-03-08T06:53:17;47.05;;;24.08;;
76667;SDS011;65585;51.166;16.922;2024-03-08T06:55:46;50.92;;;23.67;;
76667;SDS011;65585;51.166;16.922;2024-03-08T06:58:12;55.08;;;25.20;;
76667;SDS011;65585;51.166;16.922;2024-03-08T07:00:38;44.85;;;24.58;;
76667;SDS011;65585;51.166;16.922;2024-03-08T07:03:06;45.55;;;23.38;;
76667;SDS011;65585;51.166;16.922;2024-03-08T07:05:37;50.42;;;23.63;;
76667;SDS011;65585;51.166;16.922;2024-03-08T07:08:05;44.22;;;22.95;;
76667;SDS011;65585;51.166;16.922;2024-03-08T07:10:31;47.20;;;22.30;;
76667;SDS011;65585;51.166;16.922;2024-03-08T07:12:58;45.03;;;22.20;;
76667;SDS011;65585;51.166;16.922;2024-03-08T07:15:23;48.97;;;24.92;;
76667;SDS011;65585;51.166;16.922;2024-03-08T07:17:49;52.20;;;27.77;;
76667;SDS011;65585;51.166;16.922;2024-03-08T07:20:17;41.65;;;24.30;;
76667;SDS011;65585;51.166;16.922;2024-03-08T07:22:45;45.17;;;23.27;;
76667;SDS011;65585;51.166;16.922;2024-03-08T07:25:13;46.72;;;25.38;;
76667;SDS011;65585;51.166;16.922;2024-03-08T07:27:55;41.20;;;26.02;;
76667;SDS011;65585;51.166;16.922;2024-03-08T07:30:21;45.70;;;24.05;;
76667;SDS011;65585;51.166;16.922;2024-03-08T07:33:10;44.35;;;22.48;;
76667;SDS011;65585;51.166;16.922;2024-03-08T07:35:39;46.72;;;24.08;;
76667;SDS011;65585;51.166;16.922;2024-03-08T07:38:06;46.83;;;24.42;;
76667;SDS011;65585;51.166;16.922;2024-03-08T07:40:36;42.28;;;23.83;;
76667;SDS011;65585;51.166;16.922;2024-03-08T07:43:07;45.95;;;24.38;;
76667;SDS011;65585;51.166;16.922;2024-03-08T07:45:33;39.15;;;20.45;;
76667;SDS011;65585;51.166;16.922;2024-03-08T07:47:59;46.63;;;22.55;;
76667;SDS011;65585;51.166;16.922;2024-03-08T07:50:25;42.47;;;25.60;;
76667;SDS011;65585;51.166;16.922;2024-03-08T07:52:51;45.80;;;23.73;;
76667;SDS011;65585;51.166;16.922;2024-03-08T07:55:17;41.97;;;24.00;;
76667;SDS011;65585;51.166;16.922;2024-03-08T07:57:43;48.92;;;24.23;;
76667;SDS011;65585;51.166;16.922;2024-03-08T08:00:09;41.25;;;22.35;;
76667;SDS011;65585;51.166;16.922;2024-03-08T08:02:36;41.53;;;24.95;;
76667;SDS011;65585;51.166;16.922;2024-03-08T08:05:02;42.65;;;23.38;;
76667;SDS011;65585;51.166;16.922;2024-03-08T08:07:29;41.60;;;22.65;;
76667;SDS011;65585;51.166;16.922;2024-03-08T08:09:55;41.33;;;21.13;;
76667;SDS011;65585;51.166;16.922;2024-03-08T08:12:22;46.25;;;23.20;;
76667;SDS011;65585;51.166;16.922;2024-03-08T08:14:47;46.58;;;21.38;;
76667;SDS011;65585;51.166;16.922;2024-03-08T08:17:13;41.28;;;22.10;;
76667;SDS011;65585;51.166;16.922;2024-03-08T08:19:42;44.80;;;23.35;;
76667;SDS011;65585;51.166;16.922;2024-03-08T08:22:09;36.53;;;21.55;;
76667;SDS011;65585;51.166;16.922;2024-03-08T08:24:35;42.35;;;23.67;;
76667;SDS011;65585;51.166;16.922;2024-03-08T08:27:03;38.70;;;22.48;;
76667;SDS011;65585;51.166;16.922;2024-03-08T08:29:29;38.22;;;21.27;;
76667;SDS011;65585;51.166;16.922;2024-03-08T08:31:58;45.05;;;22.98;;
76667;SDS011;65585;51.166;16.922;2024-03-08T08:34:24;40.22;;;22.52;;
76667;SDS011;65585;51.166;16.922;2024-03-08T08:36:53;43.75;;;21.63;;
76667;SDS011;65585;51.166;16.922;2024-03-08T08:39:19;36.60;;;21.35;;
76667;SDS011;65585;51.166;16.922;2024-03-08T08:41:48;35.85;;;20.10;;
76667;SDS011;65585;51.166;16.922;2024-03-08T08:44:14;44.00;;;22.23;;
76667;SDS011;65585;51.166;16.922;2024-03-08T08:46:41;38.13;;;21.35;;
76667;SDS011;65585;51.166;16.922;2024-03-08T08:49:08;38.60;;;21.98;;
76667;SDS011;65585;51.166;16.922;2024-03-08T08:51:36;36.65;;;21.13;;
76667;SDS011;65585;51.166;16.922;2024-03-08T08:54:02;32.80;;;19.20;;
76667;SDS011;65585;51.166;16.922;2024-03-08T08:56:29;40.20;;;22.63;;
76667;SDS011;65585;51.166;16.922;2024-03-08T08:58:55;35.03;;;22.45;;
76667;SDS011;65585;51.166;16.922;2024-03-08T09:01:21;39.00;;;21.85;;
76667;SDS011;65585;51.166;16.922;2024-03-08T09:03:48;39.53;;;22.20;;
76667;SDS011;65585;51.166;16.922;2024-03-08T09:06:15;35.92;;;20.45;;
76667;SDS011;65585;51.166;16.922;2024-03-08T09:08:42;40.38;;;20.20;;
76667;SDS011;65585;51.166;16.922;2024-03-08T09:11:09;35.15;;;19.75;;
76667;SDS011;65585;51.166;16.922;2024-03-08T09:13:36;31.08;;;18.70;;
76667;SDS011;65585;51.166;16.922;2024-03-08T09:16:04;32.72;;;18.83;;
76667;SDS011;65585;51.166;16.922;2024-03-08T09:18:32;31.27;;;20.10;;
76667;SDS011;65585;51.166;16.922;2024-03-08T09:20:58;32.30;;;19.77;;
76667;SDS011;65585;51.166;16.922;2024-03-08T09:23:25;34.25;;;18.00;;
76667;SDS011;65585;51.166;16.922;2024-03-08T09:25:58;31.83;;;18.63;;
76667;SDS011;65585;51.166;16.922;2024-03-08T09:28:24;34.00;;;18.35;;
76667;SDS011;65585;51.166;16.922;2024-03-08T09:30:52;27.20;;;18.13;;
76667;SDS011;65585;51.166;16.922;2024-03-08T09:33:18;28.48;;;18.60;;
76667;SDS011;65585;51.166;16.922;2024-03-08T09:35:45;29.63;;;17.98;;
76667;SDS011;65585;51.166;16.922;2024-03-08T09:38:14;32.22;;;18.75;;
76667;SDS011;65585;51.166;16.922;2024-03-08T09:40:41;34.15;;;19.98;;
76667;SDS011;65585;51.166;16.922;2024-03-08T09:43:07;31.42;;;17.95;;
76667;SDS011;65585;51.166;16.922;2024-03-08T09:45:36;27.70;;;17.98;;
76667;SDS011;65585;51.166;16.922;2024-03-08T09:48:10;23.30;;;14.48;;
76667;SDS011;65585;51.166;16.922;2024-03-08T09:50:42;25.05;;;15.80;;
76667;SDS011;65585;51.166;16.922;2024-03-08T09:53:10;32.03;;;17.58;;
76667;SDS011;65585;51.166;16.922;2024-03-08T09:55:37;26.25;;;17.20;;
76667;SDS011;65585;51.166;16.922;2024-03-08T09:58:08;27.80;;;15.10;;
76667;SDS011;65585;51.166;16.922;2024-03-08T10:00:55;25.02;;;15.82;;
76667;SDS011;65585;51.166;16.922;2024-03-08T10:03:23;27.65;;;16.50;;
76667;SDS011;65585;51.166;16.922;2024-03-08T10:05:51;28.05;;;17.15;;
76667;SDS011;65585;51.166;16.922;2024-03-08T10:08:17;23.55;;;15.40;;
76667;SDS011;65585;51.166;16.922;2024-03-08T10:10:44;26.05;;;16.98;;
76667;SDS011;65585;51.166;16.922;2024-03-08T10:13:10;27.65;;;16.35;;
76667;SDS011;65585;51.166;16.922;2024-03-08T10:15:39;29.30;;;17.77;;
76667;SDS011;65585;51.166;16.922;2024-03-08T10:18:06;27.10;;;16.55;;
76667;SDS011;65585;51.166;16.922;2024-03-08T10:20:33;26.67;;;17.33;;
76667;SDS011;65585;51.166;16.922;2024-03-08T10:23:00;26.10;;;17.60;;
76667;SDS011;65585;51.166;16.922;2024-03-08T10:25:26;23.05;;;16.05;;
76667;SDS011;65585;51.166;16.922;2024-03-08T10:27:52;25.50;;;15.73;;
76667;SDS011;65585;51.166;16.922;2024-03-08T10:30:18;23.63;;;16.13;;
76667;SDS011;65585;51.166;16.922;2024-03-08T10:32:47;22.05;;;14.88;;
76667;SDS011;65585;51.166;16.922;2024-03-08T10:35:13;24.13;;;15.93;;
76667;SDS011;65585;51.166;16.922;2024-03-08T10:37:47;24.27;;;15.90;;
76667;SDS011;65585;51.166;16.922;2024-03-08T10:40:18;24.35;;;14.90;;
76667;SDS011;65585;51.166;16.922;2024-03-08T10:47:53;20.17;;;14.15;;
76667;SDS011;65585;51.166;16.922;2024-03-08T10:50:29;20.88;;;13.88;;
76667;SDS011;65585;51.166;16.922;2024-03-08T10:52:56;22.88;;;14.98;;
76667;SDS011;65585;51.166;16.922;2024-03-08T10:55:22;21.23;;;13.10;;
76667;SDS011;65585;51.166;16.922;2024-03-08T10:57:52;21.70;;;13.07;;
76667;SDS011;65585;51.166;16.922;2024-03-08T11:00:19;19.45;;;11.20;;
76667;SDS011;65585;51.166;16.922;2024-03-08T11:02:53;16.90;;;11.43;;
76667;SDS011;65585;51.166;16.922;2024-03-08T11:05:41;18.98;;;12.65;;
76667;SDS011;65585;51.166;16.922;2024-03-08T11:08:19;17.60;;;10.18;;
76667;SDS011;65585;51.166;16.922;2024-03-08T11:10:48;16.98;;;11.93;;
76667;SDS011;65585;51.166;16.922;2024-03-08T11:13:35;18.80;;;12.40;;
76667;SDS011;65585;51.166;16.922;2024-03-08T11:16:02;18.88;;;11.20;;
76667;SDS011;65585;51.166;16.922;2024-03-08T11:18:40;16.77;;;11.93;;
76667;SDS011;65585;51.166;16.922;2024-03-08T11:21:10;19.20;;;12.60;;
76667;SDS011;65585;51.166;16.922;2024-03-08T11:23:40;18.38;;;11.65;;
76667;SDS011;65585;51.166;16.922;2024-03-08T11:26:22;14.77;;;10.25;;
76667;SDS011;65585;51.166;16.922;2024-03-08T11:28:50;18.33;;;11.82;;
76667;SDS011;65585;51.166;16.922;2024-03-08T11:33:47;19.55;;;11.02;;
76667;SDS011;65585;51.166;16.922;2024-03-08T11:38:48;15.25;;;10.63;;
76667;SDS011;65585;51.166;16.922;2024-03-08T11:41:18;16.80;;;11.85;;
76667;SDS011;65585;51.166;16.922;2024-03-08T11:43:45;16.25;;;11.45;;
76667;SDS011;65585;51.166;16.922;2024-03-08T11:46:12;17.88;;;12.90;;
76667;SDS011;65585;51.166;16.922;2024-03-08T11:48:39;15.23;;;11.48;;
76667;SDS011;65585;51.166;16.922;2024-03-08T11:51:14;17.13;;;13.02;;
76667;SDS011;65585;51.166;16.922;2024-03-08T11:53:41;15.82;;;10.48;;
76667;SDS011;65585;51.166;16.922;2024-03-08T11:56:08;16.25;;;11.35;;
76667;SDS011;65585;51.166;16.922;2024-03-08T11:58:38;16.25;;;12.23;;
76667;SDS011;65585;51.166;16.922;2024-03-08T12:01:09;21.23;;;12.90;;
76667;SDS011;65585;51.166;16.922;2024-03-08T12:03:39;19.65;;;13.15;;
76667;SDS011;65585;51.166;16.922;2024-03-08T12:06:08;19.30;;;12.57;;
76667;SDS011;65585;51.166;16.922;2024-03-08T12:08:37;17.80;;;11.65;;
76667;SDS011;65585;51.166;16.922;2024-03-08T12:11:04;18.20;;;12.43;;
76667;SDS011;65585;51.166;16.922;2024-03-08T12:13:31;18.83;;;12.40;;
76667;SDS011;65585;51.166;16.922;2024-03-08T12:15:59;17.50;;;11.77;;
76667;SDS011;65585;51.166;16.922;2024-03-08T12:18:32;22.02;;;12.85;;
76667;SDS011;65585;51.166;16.922;2024-03-08T12:23:36;17.52;;;12.20;;
76667;SDS011;65585;51.166;16.922;2024-03-08T12:26:14;14.75;;;10.57;;
76667;SDS011;65585;51.166;16.922;2024-03-08T12:28:42;16.35;;;10.73;;
76667;SDS011;65585;51.166;16.922;2024-03-08T12:31:11;17.02;;;12.20;;
76667;SDS011;65585;51.166;16.922;2024-03-08T12:33:50;18.55;;;12.60;;
76667;SDS011;65585;51.166;16.922;2024-03-08T12:36:17;18.10;;;11.48;;
76667;SDS011;65585;51.166;16.922;2024-03-08T12:38:44;18.15;;;11.85;;
76667;SDS011;65585;51.166;16.922;2024-03-08T12:41:17;18.70;;;12.18;;
76667;SDS011;65585;51.166;16.922;2024-03-08T12:43:44;13.93;;;10.73;;
76667;SDS011;65585;51.166;16.922;2024-03-08T12:46:14;17.52;;;12.65;;
76667;SDS011;65585;51.166;16.922;2024-03-08T12:48:41;17.63;;;11.57;;
76667;SDS011;65585;51.166;16.922;2024-03-08T12:51:15;16.92;;;11.95;;
76667;SDS011;65585;51.166;16.922;2024-03-08T12:53:44;16.65;;;11.10;;
76667;SDS011;65585;51.166;16.922;2024-03-08T12:56:16;18.08;;;12.43;;
76667;SDS011;65585;51.166;16.922;2024-03-08T12:58:54;19.33;;;13.02;;
76667;SDS011;65585;51.166;16.922;2024-03-08T13:01:19;20.77;;;14.50;;
76667;SDS011;65585;51.166;16.922;2024-03-08T13:03:46;20.42;;;11.80;;
76667;SDS011;65585;51.166;16.922;2024-03-08T13:06:12;19.30;;;12.02;;
76667;SDS011;65585;51.166;16.922;2024-03-08T13:08:38;16.75;;;12.43;;
76667;SDS011;65585;51.166;16.922;2024-03-08T13:11:07;18.33;;;13.55;;
76667;SDS011;65585;51.166;16.922;2024-03-08T13:13:33;20.52;;;13.35;;
76667;SDS011;65585;51.166;16.922;2024-03-08T13:16:02;17.75;;;11.88;;
76667;SDS011;65585;51.166;16.922;2024-03-08T13:18:28;18.67;;;12.85;;
76667;SDS011;65585;51.166;16.922;2024-03-08T13:20:54;17.95;;;12.95;;
76667;SDS011;65585;51.166;16.922;2024-03-08T13:23:22;18.25;;;12.00;;
76667;SDS011;65585;51.166;16.922;2024-03-08T13:25:48;16.55;;;12.23;;
76667;SDS011;65585;51.166;16.922;2024-03-08T13:28:15;15.52;;;10.80;;
76667;SDS011;65585;51.166;16.922;2024-03-08T13:30:42;18.00;;;12.27;;
76667;SDS011;65585;51.166;16.922;2024-03-08T13:35:35;17.40;;;12.10;;
76667;SDS011;65585;51.166;16.922;2024-03-08T13:38:03;20.98;;;13.18;;
76667;SDS011;65585;51.166;16.922;2024-03-08T13:40:30;19.27;;;13.05;;
76667;SDS011;65585;51.166;16.922;2024-03-08T13:42:56;18.63;;;11.48;;
76667;SDS011;65585;51.166;16.922;2024-03-08T13:45:23;18.55;;;12.73;;
76667;SDS011;65585;51.166;16.922;2024-03-08T13:47:50;17.08;;;12.73;;
76667;SDS011;65585;51.166;16.922;2024-03-08T13:50:19;17.25;;;12.55;;
76667;SDS011;65585;51.166;16.922;2024-03-08T13:52:47;15.43;;;10.25;;
76667;SDS011;65585;51.166;16.922;2024-03-08T13:55:19;19.13;;;12.30;;
76667;SDS011;65585;51.166;16.922;2024-03-08T13:57:50;21.85;;;13.90;;
76667;SDS011;65585;51.166;16.922;2024-03-08T14:00:17;18.13;;;12.73;;
76667;SDS011;65585;51.166;16.922;2024-03-08T14:02:43;15.52;;;11.77;;
76667;SDS011;65585;51.166;16.922;2024-03-08T14:05:09;16.35;;;10.75;;
76667;SDS011;65585;51.166;16.922;2024-03-08T14:07:37;17.33;;;11.82;;
76667;SDS011;65585;51.166;16.922;2024-03-08T14:10:03;15.77;;;10.85;;
76667;SDS011;65585;51.166;16.922;2024-03-08T14:12:29;15.82;;;11.80;;
76667;SDS011;65585;51.166;16.922;2024-03-08T14:14:55;17.02;;;12.68;;
76667;SDS011;65585;51.166;16.922;2024-03-08T14:17:25;18.30;;;13.18;;
76667;SDS011;65585;51.166;16.922;2024-03-08T14:19:53;18.42;;;12.77;;
76667;SDS011;65585;51.166;16.922;2024-03-08T14:22:20;21.73;;;14.32;;
76667;SDS011;65585;51.166;16.922;2024-03-08T14:24:46;18.13;;;12.45;;
76667;SDS011;65585;51.166;16.922;2024-03-08T14:27:12;20.17;;;12.50;;
76667;SDS011;65585;51.166;16.922;2024-03-08T14:29:40;19.38;;;12.90;;
76667;SDS011;65585;51.166;16.922;2024-03-08T14:32:06;18.75;;;12.80;;